sensor_id;sensor_type;location;lat;lon;timestamp;temperature;humidity
20698;DHT22;10508;50.956;4.640;2023-12-28T04:15:03;11.60;99.90
20698;DHT22;10508;50.956;4.640;2023-12-28T04:17:28;11.40;99.90
20698;DHT22;10508;50.956;4.640;2023-12-28T04:19:54;11.40;99.90
20698;DHT22;10508;50.956;4.640;2023-12-28T04:22:20;11.30;99.90
20698;DHT22;10508;50.956;4.640;2023-12-28T04:24:45;11.30;99.90
20698;DHT22;10508;50.956;4.640;2023-12-28T04:27:11;11.30;99.90
20698;DHT22;10508;50.956;4.640;2023-12-28T04:29:37;11.30;99.90
20698;DHT22;10508;50.956;4.640;2023-12-28T04:32:03;11.30;99.90
20698;DHT22;10508;50.956;4.640;2023-12-28T04:34:29;11.10;99.90
20698;DHT22;10508;50.956;4.640;2023-12-28T04:36:55;11.10;99.90
20698;DHT22;10508;50.956;4.640;2023-12-28T04:39:20;11.20;99.90
20698;DHT22;10508;50.956;4.640;2023-12-28T04:41:46;11.10;99.90
20698;DHT22;10508;50.956;4.640;2023-12-28T04:44:12;11.20;99.90
20698;DHT22;10508;50.956;4.640;2023-12-28T04:46:38;11.20;99.90
20698;DHT22;10508;50.956;4.640;2023-12-28T04:49:06;11.10;99.90
20698;DHT22;10508;50.956;4.640;2023-12-28T04:51:32;11.20;99.90
20698;DHT22;10508;50.956;4.640;2023-12-28T04:53:58;11.20;99.90
20698;DHT22;10508;50.956;4.640;2023-12-28T04:56:23;11.20;99.90
20698;DHT22;10508;50.956;4.640;2023-12-28T04:58:49;11.20;99.90
20698;DHT22;10508;50.956;4.640;2023-12-28T05:01:14;11.20;99.90
20698;DHT22;10508;50.956;4.640;2023-12-28T05:03:40;11.20;99.90
20698;DHT22;10508;50.956;4.640;2023-12-28T05:06:06;11.20;99.90
20698;DHT22;10508;50.956;4.640;2023-12-28T05:08:32;11.20;99.90
20698;DHT22;10508;50.956;4.640;2023-12-28T05:10:57;11.20;99.90
20698;DHT22;10508;50.956;4.640;2023-12-28T05:13:23;11.10;99.90
20698;DHT22;10508;50.956;4.640;2023-12-28T05:15:49;11.20;99.90
20698;DHT22;10508;50.956;4.640;2023-12-28T05:18:14;11.10;99.90
20698;DHT22;10508;50.956;4.640;2023-12-28T05:20:40;11.10;99.90
20698;DHT22;10508;50.956;4.640;2023-12-28T05:23:05;11.00;99.90
20698;DHT22;10508;50.956;4.640;2023-12-28T05:25:31;11.00;99.90
20698;DHT22;10508;50.956;4.640;2023-12-28T05:27:57;10.90;99.90
20698;DHT22;10508;50.956;4.640;2023-12-28T05:30:22;10.90;99.90
20698;DHT22;10508;50.956;4.640;2023-12-28T05:32:48;11.00;99.90
20698;DHT22;10508;50.956;4.640;2023-12-28T05:35:14;11.00;99.90
20698;DHT22;10508;50.956;4.640;2023-12-28T05:37:39;11.00;99.90
20698;DHT22;10508;50.956;4.640;2023-12-28T05:40:05;10.90;99.90
20698;DHT22;10508;50.956;4.640;2023-12-28T05:42:31;11.00;99.90
20698;DHT22;10508;50.956;4.640;2023-12-28T05:44:57;11.00;99.90
20698;DHT22;10508;50.956;4.640;2023-12-28T05:47:22;11.00;99.90
20698;DHT22;10508;50.956;4.640;2023-12-28T05:49:49;11.00;99.90
20698;DHT22;10508;50.956;4.640;2023-12-28T05:52:15;11.10;99.90
20698;DHT22;10508;50.956;4.640;2023-12-28T05:54:42;11.10;99.90
20698;DHT22;10508;50.956;4.640;2023-12-28T05:57:09;11.10;99.90
20698;DHT22;10508;50.956;4.640;2023-12-28T05:59:38;11.10;99.90
20698;DHT22;10508;50.956;4.640;2023-12-28T06:02:04;11.00;99.90
20698;DHT22;10508;50.956;4.640;2023-12-28T06:14:37;11.40;99.90
20698;DHT22;10508;50.956;4.640;2023-12-28T06:17:03;11.20;99.90
20698;DHT22;10508;50.956;4.640;2023-12-28T06:19:29;11.00;99.90
20698;DHT22;10508;50.956;4.640;2023-12-28T06:21:55;11.00;99.90
20698;DHT22;10508;50.956;4.640;2023-12-28T06:24:21;10.90;99.90
20698;DHT22;10508;50.956;4.640;2023-12-28T06:26:46;10.80;99.90
20698;DHT22;10508;50.956;4.640;2023-12-28T06:29:12;10.80;99.90
20698;DHT22;10508;50.956;4.640;2023-12-28T06:31:38;10.80;99.90
20698;DHT22;10508;50.956;4.640;2023-12-28T06:34:04;10.80;99.90
20698;DHT22;10508;50.956;4.640;2023-12-28T06:36:30;10.90;99.90
20698;DHT22;10508;50.956;4.640;2023-12-28T06:38:56;10.60;99.90
20698;DHT22;10508;50.956;4.640;2023-12-28T06:41:22;10.70;99.90
20698;DHT22;10508;50.956;4.640;2023-12-28T06:43:48;10.80;99.90
20698;DHT22;10508;50.956;4.640;2023-12-28T06:46:13;10.90;99.90
20698;DHT22;10508;50.956;4.640;2023-12-28T06:48:39;10.90;99.90
20698;DHT22;10508;50.956;4.640;2023-12-28T06:51:06;10.80;99.90
20698;DHT22;10508;50.956;4.640;2023-12-28T06:53:32;10.50;99.90
20698;DHT22;10508;50.956;4.640;2023-12-28T06:55:58;10.60;99.90
20698;DHT22;10508;50.956;4.640;2023-12-28T06:58:24;10.90;99.90
20698;DHT22;10508;50.956;4.640;2023-12-28T07:00:50;10.80;99.90
20698;DHT22;10508;50.956;4.640;2023-12-28T07:03:15;10.90;99.90
20698;DHT22;10508;50.956;4.640;2023-12-28T07:05:41;10.90;99.90
20698;DHT22;10508;50.956;4.640;2023-12-28T07:08:07;10.80;99.90
20698;DHT22;10508;50.956;4.640;2023-12-28T07:10:32;10.80;99.90
20698;DHT22;10508;50.956;4.640;2023-12-28T07:12:58;10.80;99.90
20698;DHT22;10508;50.956;4.640;2023-12-28T07:15:23;10.80;99.90
20698;DHT22;10508;50.956;4.640;2023-12-28T07:17:50;10.80;99.90
20698;DHT22;10508;50.956;4.640;2023-12-28T07:20:16;10.80;99.90
20698;DHT22;10508;50.956;4.640;2023-12-28T07:22:42;10.80;99.90
20698;DHT22;10508;50.956;4.640;2023-12-28T07:25:08;10.70;99.90
20698;DHT22;10508;50.956;4.640;2023-12-28T07:27:36;10.80;99.90
20698;DHT22;10508;50.956;4.640;2023-12-28T07:30:03;10.70;99.90
20698;DHT22;10508;50.956;4.640;2023-12-28T07:32:29;10.60;99.90
20698;DHT22;10508;50.956;4.640;2023-12-28T07:34:55;10.60;99.90
20698;DHT22;10508;50.956;4.640;2023-12-28T07:37:20;10.60;99.90
20698;DHT22;10508;50.956;4.640;2023-12-28T07:39:49;10.60;99.90
20698;DHT22;10508;50.956;4.640;2023-12-28T07:42:15;10.60;99.90
20698;DHT22;10508;50.956;4.640;2023-12-28T07:44:41;10.70;99.90
20698;DHT22;10508;50.956;4.640;2023-12-28T07:47:07;10.60;99.90
20698;DHT22;10508;50.956;4.640;2023-12-28T07:49:33;10.60;99.90
20698;DHT22;10508;50.956;4.640;2023-12-28T07:51:58;10.60;99.90
20698;DHT22;10508;50.956;4.640;2023-12-28T07:56:51;10.60;99.90
20698;DHT22;10508;50.956;4.640;2023-12-28T07:59:17;10.60;99.90
20698;DHT22;10508;50.956;4.640;2023-12-28T08:04:11;10.60;99.90
20698;DHT22;10508;50.956;4.640;2023-12-28T08:06:36;10.70;99.90
20698;DHT22;10508;50.956;4.640;2023-12-28T08:11:29;10.90;99.90
20698;DHT22;10508;50.956;4.640;2023-12-28T08:13:57;10.50;99.90
20698;DHT22;10508;50.956;4.640;2023-12-28T08:16:25;10.70;99.90
20698;DHT22;10508;50.956;4.640;2023-12-28T08:18:51;10.70;99.90
20698;DHT22;10508;50.956;4.640;2023-12-28T08:23:44;10.70;99.90
20698;DHT22;10508;50.956;4.640;2023-12-28T08:26:10;10.80;99.90
20698;DHT22;10508;50.956;4.640;2023-12-28T08:28:36;10.80;99.90
20698;DHT22;10508;50.956;4.640;2023-12-28T08:31:02;10.90;99.90
20698;DHT22;10508;50.956;4.640;2023-12-28T08:33:29;10.90;99.90
20698;DHT22;10508;50.956;4.640;2023-12-28T08:35:56;10.80;99.90
20698;DHT22;10508;50.956;4.640;2023-12-28T08:38:22;11.00;99.90
20698;DHT22;10508;50.956;4.640;2023-12-28T08:40:48;11.00;99.90
20698;DHT22;10508;50.956;4.640;2023-12-28T08:43:14;11.00;99.90
20698;DHT22;10508;50.956;4.640;2023-12-28T08:45:41;10.90;99.90
20698;DHT22;10508;50.956;4.640;2023-12-28T08:55:28;10.90;99.90
20698;DHT22;10508;50.956;4.640;2023-12-28T09:02:48;11.20;99.90
20698;DHT22;10508;50.956;4.640;2023-12-28T09:05:16;11.30;99.90
20698;DHT22;10508;50.956;4.640;2023-12-28T12:40:43;13.30;99.90
20698;DHT22;10508;50.956;4.640;2023-12-28T12:43:09;13.10;99.90
20698;DHT22;10508;50.956;4.640;2023-12-28T12:45:35;12.90;99.90
20698;DHT22;10508;50.956;4.640;2023-12-28T12:48:05;12.80;99.90
20698;DHT22;10508;50.956;4.640;2023-12-28T12:50:34;12.80;99.90
20698;DHT22;10508;50.956;4.640;2023-12-28T12:53:01;12.70;99.90
20698;DHT22;10508;50.956;4.640;2023-12-28T12:55:27;12.60;99.90
20698;DHT22;10508;50.956;4.640;2023-12-28T12:57:53;12.60;99.90
20698;DHT22;10508;50.956;4.640;2023-12-28T13:00:22;12.60;99.90
20698;DHT22;10508;50.956;4.640;2023-12-28T13:02:50;12.50;99.90
20698;DHT22;10508;50.956;4.640;2023-12-28T13:05:19;12.50;99.90
20698;DHT22;10508;50.956;4.640;2023-12-28T13:07:45;12.50;99.90
20698;DHT22;10508;50.956;4.640;2023-12-28T13:10:11;12.50;99.90
20698;DHT22;10508;50.956;4.640;2023-12-28T13:12:37;12.50;99.90
20698;DHT22;10508;50.956;4.640;2023-12-28T13:15:03;12.50;99.90
20698;DHT22;10508;50.956;4.640;2023-12-28T13:17:29;12.40;99.90
20698;DHT22;10508;50.956;4.640;2023-12-28T13:19:55;12.40;99.90
20698;DHT22;10508;50.956;4.640;2023-12-28T13:22:39;12.40;99.90
20698;DHT22;10508;50.956;4.640;2023-12-28T13:25:05;12.40;99.90
20698;DHT22;10508;50.956;4.640;2023-12-28T13:27:31;12.40;99.90
20698;DHT22;10508;50.956;4.640;2023-12-28T13:29:57;12.30;99.90
20698;DHT22;10508;50.956;4.640;2023-12-28T13:32:23;12.30;99.90
20698;DHT22;10508;50.956;4.640;2023-12-28T13:34:49;12.40;99.90
20698;DHT22;10508;50.956;4.640;2023-12-28T13:37:18;12.40;99.90
20698;DHT22;10508;50.956;4.640;2023-12-28T13:39:44;12.40;99.90
20698;DHT22;10508;50.956;4.640;2023-12-28T13:42:09;12.40;99.90
20698;DHT22;10508;50.956;4.640;2023-12-28T13:44:35;12.40;99.90
20698;DHT22;10508;50.956;4.640;2023-12-28T13:47:04;12.30;99.90
20698;DHT22;10508;50.956;4.640;2023-12-28T13:49:33;12.30;99.90
20698;DHT22;10508;50.956;4.640;2023-12-28T13:51:59;12.30;99.90
20698;DHT22;10508;50.956;4.640;2023-12-28T13:54:24;12.30;99.90
20698;DHT22;10508;50.956;4.640;2023-12-28T13:56:50;12.30;99.90
20698;DHT22;10508;50.956;4.640;2023-12-28T13:59:22;12.30;99.90
20698;DHT22;10508;50.956;4.640;2023-12-28T14:01:48;12.20;99.90
20698;DHT22;10508;50.956;4.640;2023-12-28T14:04:13;12.20;99.90
20698;DHT22;10508;50.956;4.640;2023-12-28T14:06:39;12.30;99.90
20698;DHT22;10508;50.956;4.640;2023-12-28T14:09:05;12.20;99.90
20698;DHT22;10508;50.956;4.640;2023-12-28T14:11:31;12.20;99.90
20698;DHT22;10508;50.956;4.640;2023-12-28T14:13:56;12.20;99.90
20698;DHT22;10508;50.956;4.640;2023-12-28T14:16:22;12.20;99.90
20698;DHT22;10508;50.956;4.640;2023-12-28T14:18:48;12.20;99.90
20698;DHT22;10508;50.956;4.640;2023-12-28T14:21:15;12.20;99.90
20698;DHT22;10508;50.956;4.640;2023-12-28T14:23:41;12.20;99.90
20698;DHT22;10508;50.956;4.640;2023-12-28T14:26:13;12.20;99.90
20698;DHT22;10508;50.956;4.640;2023-12-28T14:28:42;12.10;99.90
20698;DHT22;10508;50.956;4.640;2023-12-28T14:31:10;12.10;99.90
20698;DHT22;10508;50.956;4.640;2023-12-28T14:33:36;12.10;99.90
20698;DHT22;10508;50.956;4.640;2023-12-28T14:36:02;12.10;99.90
20698;DHT22;10508;50.956;4.640;2023-12-28T14:38:29;12.10;99.90
20698;DHT22;10508;50.956;4.640;2023-12-28T14:40:55;12.10;99.90
20698;DHT22;10508;50.956;4.640;2023-12-28T14:43:21;12.10;99.90
20698;DHT22;10508;50.956;4.640;2023-12-28T14:45:47;12.10;99.90
20698;DHT22;10508;50.956;4.640;2023-12-28T14:48:13;12.10;99.90
20698;DHT22;10508;50.956;4.640;2023-12-28T14:50:39;12.10;99.90
20698;DHT22;10508;50.956;4.640;2023-12-28T14:53:04;12.00;99.90
20698;DHT22;10508;50.956;4.640;2023-12-28T14:55:30;12.00;99.90
20698;DHT22;10508;50.956;4.640;2023-12-28T14:57:56;11.90;99.90
20698;DHT22;10508;50.956;4.640;2023-12-28T15:00:21;11.90;99.90
20698;DHT22;10508;50.956;4.640;2023-12-28T15:02:48;11.90;99.90
20698;DHT22;10508;50.956;4.640;2023-12-28T15:05:13;11.90;99.90
20698;DHT22;10508;50.956;4.640;2023-12-28T15:07:40;11.90;99.90
20698;DHT22;10508;50.956;4.640;2023-12-28T15:10:07;12.00;99.90
20698;DHT22;10508;50.956;4.640;2023-12-28T15:12:34;11.90;99.90
20698;DHT22;10508;50.956;4.640;2023-12-28T15:15:00;11.80;99.90
20698;DHT22;10508;50.956;4.640;2023-12-28T15:17:25;11.80;99.90
20698;DHT22;10508;50.956;4.640;2023-12-28T15:19:51;11.80;99.90
20698;DHT22;10508;50.956;4.640;2023-12-28T15:22:17;11.70;99.90
20698;DHT22;10508;50.956;4.640;2023-12-28T15:24:43;11.80;99.90
20698;DHT22;10508;50.956;4.640;2023-12-28T15:27:09;11.80;99.90
20698;DHT22;10508;50.956;4.640;2023-12-28T15:29:35;11.80;99.90
20698;DHT22;10508;50.956;4.640;2023-12-28T15:32:01;11.80;99.90
20698;DHT22;10508;50.956;4.640;2023-12-28T15:34:27;11.70;99.90
20698;DHT22;10508;50.956;4.640;2023-12-28T15:36:52;11.70;99.90
20698;DHT22;10508;50.956;4.640;2023-12-28T15:39:18;11.70;99.90
20698;DHT22;10508;50.956;4.640;2023-12-28T15:41:44;11.60;99.90
20698;DHT22;10508;50.956;4.640;2023-12-28T15:44:11;11.60;99.90
20698;DHT22;10508;50.956;4.640;2023-12-28T15:46:38;11.60;99.90
20698;DHT22;10508;50.956;4.640;2023-12-28T15:49:03;11.60;99.90
20698;DHT22;10508;50.956;4.640;2023-12-28T15:51:29;11.70;99.90
20698;DHT22;10508;50.956;4.640;2023-12-28T15:53:55;11.60;99.90
20698;DHT22;10508;50.956;4.640;2023-12-28T15:56:21;11.60;99.90
20698;DHT22;10508;50.956;4.640;2023-12-28T15:58:47;11.60;99.90
20698;DHT22;10508;50.956;4.640;2023-12-28T16:01:12;11.60;99.90
20698;DHT22;10508;50.956;4.640;2023-12-28T16:03:38;11.60;99.90
20698;DHT22;10508;50.956;4.640;2023-12-28T16:06:04;11.60;99.90
20698;DHT22;10508;50.956;4.640;2023-12-28T16:08:30;11.60;99.90
20698;DHT22;10508;50.956;4.640;2023-12-28T16:10:55;11.60;99.90
20698;DHT22;10508;50.956;4.640;2023-12-28T16:13:21;11.60;99.90
20698;DHT22;10508;50.956;4.640;2023-12-28T16:15:47;11.60;99.90
20698;DHT22;10508;50.956;4.640;2023-12-28T16:18:31;11.60;99.90
20698;DHT22;10508;50.956;4.640;2023-12-28T16:20:57;11.50;99.90
20698;DHT22;10508;50.956;4.640;2023-12-28T16:23:23;11.50;99.90
20698;DHT22;10508;50.956;4.640;2023-12-28T16:25:49;11.50;99.90
20698;DHT22;10508;50.956;4.640;2023-12-28T16:28:15;11.50;99.90
20698;DHT22;10508;50.956;4.640;2023-12-28T16:30:41;11.50;99.90
20698;DHT22;10508;50.956;4.640;2023-12-28T16:33:06;11.50;99.90
20698;DHT22;10508;50.956;4.640;2023-12-28T16:35:32;11.50;99.90
20698;DHT22;10508;50.956;4.640;2023-12-28T16:37:58;11.50;99.90
20698;DHT22;10508;50.956;4.640;2023-12-28T16:40:24;11.60;99.90
20698;DHT22;10508;50.956;4.640;2023-12-28T16:42:50;11.60;99.90
20698;DHT22;10508;50.956;4.640;2023-12-28T16:45:16;11.60;99.90
20698;DHT22;10508;50.956;4.640;2023-12-28T16:47:42;11.60;99.90
20698;DHT22;10508;50.956;4.640;2023-12-28T16:50:08;11.60;99.90
20698;DHT22;10508;50.956;4.640;2023-12-28T16:52:34;11.60;99.90
20698;DHT22;10508;50.956;4.640;2023-12-28T16:55:00;11.60;99.90
20698;DHT22;10508;50.956;4.640;2023-12-28T16:57:25;11.60;99.90
20698;DHT22;10508;50.956;4.640;2023-12-28T16:59:52;11.60;99.90
20698;DHT22;10508;50.956;4.640;2023-12-28T17:02:18;11.60;99.90
20698;DHT22;10508;50.956;4.640;2023-12-28T17:04:49;11.60;99.90
20698;DHT22;10508;50.956;4.640;2023-12-28T17:07:15;11.60;99.90
20698;DHT22;10508;50.956;4.640;2023-12-28T17:09:41;11.70;99.90
20698;DHT22;10508;50.956;4.640;2023-12-28T17:12:13;11.70;99.90
20698;DHT22;10508;50.956;4.640;2023-12-28T17:14:40;11.70;99.90
20698;DHT22;10508;50.956;4.640;2023-12-28T17:17:06;11.60;99.90
20698;DHT22;10508;50.956;4.640;2023-12-28T17:19:32;11.70;99.90
20698;DHT22;10508;50.956;4.640;2023-12-28T17:22:03;11.70;99.90
20698;DHT22;10508;50.956;4.640;2023-12-28T17:24:33;11.60;99.90
20698;DHT22;10508;50.956;4.640;2023-12-28T17:27:03;11.60;99.90
20698;DHT22;10508;50.956;4.640;2023-12-28T17:29:32;11.60;99.90
20698;DHT22;10508;50.956;4.640;2023-12-28T17:32:02;11.70;99.90
20698;DHT22;10508;50.956;4.640;2023-12-28T17:34:28;11.70;99.90
20698;DHT22;10508;50.956;4.640;2023-12-28T17:36:54;11.70;99.90
20698;DHT22;10508;50.956;4.640;2023-12-28T17:39:20;11.60;99.90
20698;DHT22;10508;50.956;4.640;2023-12-28T17:41:48;11.70;99.90
20698;DHT22;10508;50.956;4.640;2023-12-28T17:44:23;11.60;99.90
20698;DHT22;10508;50.956;4.640;2023-12-28T17:46:51;11.60;99.90
20698;DHT22;10508;50.956;4.640;2023-12-28T17:49:31;11.60;99.90
20698;DHT22;10508;50.956;4.640;2023-12-28T17:51:58;11.50;99.90
20698;DHT22;10508;50.956;4.640;2023-12-28T17:54:24;11.50;99.90
20698;DHT22;10508;50.956;4.640;2023-12-28T17:56:53;11.50;99.90
20698;DHT22;10508;50.956;4.640;2023-12-28T17:59:20;11.50;99.90
20698;DHT22;10508;50.956;4.640;2023-12-28T18:01:45;11.40;99.90
20698;DHT22;10508;50.956;4.640;2023-12-28T18:04:12;11.50;99.90
20698;DHT22;10508;50.956;4.640;2023-12-28T18:06:38;11.50;99.90
20698;DHT22;10508;50.956;4.640;2023-12-28T18:09:04;11.50;99.90
20698;DHT22;10508;50.956;4.640;2023-12-28T18:11:30;11.50;99.90
20698;DHT22;10508;50.956;4.640;2023-12-28T18:13:56;11.60;99.90
20698;DHT22;10508;50.956;4.640;2023-12-28T18:16:22;11.50;99.90
20698;DHT22;10508;50.956;4.640;2023-12-28T18:18:48;11.50;99.90
20698;DHT22;10508;50.956;4.640;2023-12-28T18:21:14;11.60;99.90
20698;DHT22;10508;50.956;4.640;2023-12-28T18:23:40;11.50;99.90
20698;DHT22;10508;50.956;4.640;2023-12-28T18:26:07;11.50;99.90
20698;DHT22;10508;50.956;4.640;2023-12-28T18:28:32;11.50;99.90
20698;DHT22;10508;50.956;4.640;2023-12-28T18:30:59;11.50;99.90
20698;DHT22;10508;50.956;4.640;2023-12-28T18:33:25;11.50;99.90
20698;DHT22;10508;50.956;4.640;2023-12-28T18:35:51;11.50;99.90
20698;DHT22;10508;50.956;4.640;2023-12-28T18:38:28;11.50;99.90
20698;DHT22;10508;50.956;4.640;2023-12-28T18:40:54;11.40;99.90
20698;DHT22;10508;50.956;4.640;2023-12-28T18:43:20;11.40;99.90
20698;DHT22;10508;50.956;4.640;2023-12-28T18:45:46;11.40;99.90
20698;DHT22;10508;50.956;4.640;2023-12-28T18:48:12;11.40;99.90
20698;DHT22;10508;50.956;4.640;2023-12-28T18:50:41;11.30;99.90
20698;DHT22;10508;50.956;4.640;2023-12-28T18:53:08;11.30;99.90
20698;DHT22;10508;50.956;4.640;2023-12-28T18:55:37;11.30;99.90
20698;DHT22;10508;50.956;4.640;2023-12-28T18:58:07;11.20;99.90
20698;DHT22;10508;50.956;4.640;2023-12-28T19:00:36;11.20;99.90
20698;DHT22;10508;50.956;4.640;2023-12-28T19:03:02;11.30;99.90
20698;DHT22;10508;50.956;4.640;2023-12-28T19:05:29;11.30;99.90
20698;DHT22;10508;50.956;4.640;2023-12-28T19:08:13;11.30;99.90
20698;DHT22;10508;50.956;4.640;2023-12-28T19:10:45;11.30;99.90
20698;DHT22;10508;50.956;4.640;2023-12-28T19:13:12;11.30;99.90
20698;DHT22;10508;50.956;4.640;2023-12-28T19:15:38;11.30;99.90
20698;DHT22;10508;50.956;4.640;2023-12-28T19:18:04;11.30;99.90
20698;DHT22;10508;50.956;4.640;2023-12-28T19:20:42;11.20;99.90
20698;DHT22;10508;50.956;4.640;2023-12-28T19:23:07;11.30;99.90
20698;DHT22;10508;50.956;4.640;2023-12-28T19:25:33;11.30;99.90
20698;DHT22;10508;50.956;4.640;2023-12-28T19:27:59;11.40;99.90
20698;DHT22;10508;50.956;4.640;2023-12-28T19:30:24;11.40;99.90
20698;DHT22;10508;50.956;4.640;2023-12-28T19:32:50;11.40;99.90
20698;DHT22;10508;50.956;4.640;2023-12-28T19:35:16;11.40;99.90
20698;DHT22;10508;50.956;4.640;2023-12-28T19:37:43;11.40;99.90
20698;DHT22;10508;50.956;4.640;2023-12-28T19:40:10;11.40;99.90
20698;DHT22;10508;50.956;4.640;2023-12-28T19:42:36;11.40;99.90
20698;DHT22;10508;50.956;4.640;2023-12-28T19:45:02;11.40;99.90
20698;DHT22;10508;50.956;4.640;2023-12-28T19:47:28;11.30;99.90
20698;DHT22;10508;50.956;4.640;2023-12-28T19:49:53;11.30;99.90
20698;DHT22;10508;50.956;4.640;2023-12-28T19:52:19;11.30;99.90
20698;DHT22;10508;50.956;4.640;2023-12-28T19:54:47;11.30;99.90
20698;DHT22;10508;50.956;4.640;2023-12-28T19:57:13;11.30;99.90
20698;DHT22;10508;50.956;4.640;2023-12-28T19:59:39;11.20;99.90
20698;DHT22;10508;50.956;4.640;2023-12-28T20:02:05;11.20;99.90
20698;DHT22;10508;50.956;4.640;2023-12-28T20:04:30;11.20;99.90
20698;DHT22;10508;50.956;4.640;2023-12-28T20:06:56;11.30;99.90
20698;DHT22;10508;50.956;4.640;2023-12-28T20:09:22;11.20;99.90
20698;DHT22;10508;50.956;4.640;2023-12-28T20:11:51;11.30;99.90
20698;DHT22;10508;50.956;4.640;2023-12-28T20:14:16;11.20;99.90
20698;DHT22;10508;50.956;4.640;2023-12-28T20:16:42;11.20;99.90
20698;DHT22;10508;50.956;4.640;2023-12-28T20:19:11;11.20;99.90
20698;DHT22;10508;50.956;4.640;2023-12-28T20:21:36;11.30;99.90
20698;DHT22;10508;50.956;4.640;2023-12-28T20:24:04;11.30;99.90
20698;DHT22;10508;50.956;4.640;2023-12-28T20:26:30;11.30;99.90
20698;DHT22;10508;50.956;4.640;2023-12-28T20:28:56;11.30;99.90
20698;DHT22;10508;50.956;4.640;2023-12-28T20:31:21;11.30;99.90
20698;DHT22;10508;50.956;4.640;2023-12-28T20:33:47;11.40;99.90
20698;DHT22;10508;50.956;4.640;2023-12-28T20:36:15;11.40;99.90
20698;DHT22;10508;50.956;4.640;2023-12-28T20:38:41;11.30;99.90
20698;DHT22;10508;50.956;4.640;2023-12-28T20:41:07;11.30;99.90
20698;DHT22;10508;50.956;4.640;2023-12-28T20:43:34;11.30;99.90
20698;DHT22;10508;50.956;4.640;2023-12-28T20:46:01;11.30;99.90
20698;DHT22;10508;50.956;4.640;2023-12-28T20:48:27;11.30;99.90
20698;DHT22;10508;50.956;4.640;2023-12-28T20:50:56;11.20;99.90
20698;DHT22;10508;50.956;4.640;2023-12-28T20:53:22;11.30;99.90
20698;DHT22;10508;50.956;4.640;2023-12-28T20:55:48;11.30;99.90
20698;DHT22;10508;50.956;4.640;2023-12-28T20:58:13;11.30;99.90
20698;DHT22;10508;50.956;4.640;2023-12-28T21:00:39;11.30;99.90
20698;DHT22;10508;50.956;4.640;2023-12-28T21:03:05;11.30;99.90
20698;DHT22;10508;50.956;4.640;2023-12-28T21:05:30;11.30;99.90
20698;DHT22;10508;50.956;4.640;2023-12-28T21:07:56;11.30;99.90
20698;DHT22;10508;50.956;4.640;2023-12-28T21:10:22;11.30;99.90
20698;DHT22;10508;50.956;4.640;2023-12-28T21:12:49;11.30;99.90
20698;DHT22;10508;50.956;4.640;2023-12-28T21:15:26;11.30;99.90
20698;DHT22;10508;50.956;4.640;2023-12-28T21:17:52;11.30;99.90
20698;DHT22;10508;50.956;4.640;2023-12-28T21:20:18;11.30;99.90
20698;DHT22;10508;50.956;4.640;2023-12-28T21:22:43;11.30;99.90
20698;DHT22;10508;50.956;4.640;2023-12-28T21:25:10;11.30;99.90
20698;DHT22;10508;50.956;4.640;2023-12-28T21:27:37;11.30;99.90
20698;DHT22;10508;50.956;4.640;2023-12-28T21:30:02;11.30;99.90
20698;DHT22;10508;50.956;4.640;2023-12-28T21:32:28;11.20;99.90
20698;DHT22;10508;50.956;4.640;2023-12-28T21:34:54;11.20;99.90
20698;DHT22;10508;50.956;4.640;2023-12-28T21:37:20;11.20;99.90
20698;DHT22;10508;50.956;4.640;2023-12-28T21:39:45;11.30;99.90
20698;DHT22;10508;50.956;4.640;2023-12-28T21:42:11;11.20;99.90
20698;DHT22;10508;50.956;4.640;2023-12-28T21:44:37;11.20;99.90
20698;DHT22;10508;50.956;4.640;2023-12-28T21:47:02;11.20;99.90
20698;DHT22;10508;50.956;4.640;2023-12-28T21:49:28;11.20;99.90
20698;DHT22;10508;50.956;4.640;2023-12-28T21:51:54;11.30;99.90
20698;DHT22;10508;50.956;4.640;2023-12-28T21:54:19;11.30;99.90
20698;DHT22;10508;50.956;4.640;2023-12-28T21:56:45;11.30;99.90
20698;DHT22;10508;50.956;4.640;2023-12-28T21:59:11;11.30;99.90
20698;DHT22;10508;50.956;4.640;2023-12-28T22:01:37;11.40;99.90
20698;DHT22;10508;50.956;4.640;2023-12-28T22:04:03;11.40;99.90
20698;DHT22;10508;50.956;4.640;2023-12-28T22:06:29;11.30;99.90
20698;DHT22;10508;50.956;4.640;2023-12-28T22:08:54;11.30;99.90
20698;DHT22;10508;50.956;4.640;2023-12-28T22:11:20;11.40;99.90
20698;DHT22;10508;50.956;4.640;2023-12-28T22:13:46;11.40;99.90
20698;DHT22;10508;50.956;4.640;2023-12-28T22:16:12;11.50;99.90
20698;DHT22;10508;50.956;4.640;2023-12-28T22:18:37;11.40;99.90
20698;DHT22;10508;50.956;4.640;2023-12-28T22:21:03;11.50;99.90
20698;DHT22;10508;50.956;4.640;2023-12-28T22:23:29;11.50;99.90
20698;DHT22;10508;50.956;4.640;2023-12-28T22:25:54;11.50;99.90
20698;DHT22;10508;50.956;4.640;2023-12-28T22:28:20;11.40;99.90
20698;DHT22;10508;50.956;4.640;2023-12-28T22:30:46;11.50;99.90
20698;DHT22;10508;50.956;4.640;2023-12-28T22:33:11;11.50;99.90
20698;DHT22;10508;50.956;4.640;2023-12-28T22:35:37;11.50;99.90
20698;DHT22;10508;50.956;4.640;2023-12-28T22:38:03;11.50;99.90
20698;DHT22;10508;50.956;4.640;2023-12-28T22:40:29;11.50;99.90
20698;DHT22;10508;50.956;4.640;2023-12-28T22:42:54;11.60;99.90
20698;DHT22;10508;50.956;4.640;2023-12-28T22:45:20;11.60;99.90
20698;DHT22;10508;50.956;4.640;2023-12-28T22:47:46;11.60;99.90
20698;DHT22;10508;50.956;4.640;2023-12-28T22:50:12;11.50;99.90
20698;DHT22;10508;50.956;4.640;2023-12-28T22:52:38;11.60;99.90
20698;DHT22;10508;50.956;4.640;2023-12-28T22:55:05;11.60;99.90
20698;DHT22;10508;50.956;4.640;2023-12-28T22:57:31;11.60;99.90
20698;DHT22;10508;50.956;4.640;2023-12-28T22:59:57;11.60;99.90
20698;DHT22;10508;50.956;4.640;2023-12-28T23:02:22;11.60;99.90
20698;DHT22;10508;50.956;4.640;2023-12-28T23:04:48;11.50;99.90
20698;DHT22;10508;50.956;4.640;2023-12-28T23:07:14;11.60;99.90
20698;DHT22;10508;50.956;4.640;2023-12-28T23:09:42;11.50;99.90
20698;DHT22;10508;50.956;4.640;2023-12-28T23:12:07;11.50;99.90
20698;DHT22;10508;50.956;4.640;2023-12-28T23:14:33;11.60;99.90
20698;DHT22;10508;50.956;4.640;2023-12-28T23:16:59;11.50;99.90
20698;DHT22;10508;50.956;4.640;2023-12-28T23:19:25;11.50;99.90
20698;DHT22;10508;50.956;4.640;2023-12-28T23:21:50;11.50;99.90
20698;DHT22;10508;50.956;4.640;2023-12-28T23:24:16;11.50;99.90
20698;DHT22;10508;50.956;4.640;2023-12-28T23:26:42;11.50;99.90
20698;DHT22;10508;50.956;4.640;2023-12-28T23:29:07;11.50;99.90
20698;DHT22;10508;50.956;4.640;2023-12-28T23:31:33;11.50;99.90
20698;DHT22;10508;50.956;4.640;2023-12-28T23:33:59;11.50;99.90
20698;DHT22;10508;50.956;4.640;2023-12-28T23:36:24;11.40;99.90
20698;DHT22;10508;50.956;4.640;2023-12-28T23:38:50;11.40;99.90
20698;DHT22;10508;50.956;4.640;2023-12-28T23:41:16;11.50;99.90
20698;DHT22;10508;50.956;4.640;2023-12-28T23:43:41;11.50;99.90